Time;durP1;ratioP1;P1;durP2;ratioP2;P2;SDS_P1;SDS_P2;PMS_P1;PMS_P2;Temp;Humidity;BMP_temperature;BMP_pressure;BME280_temperature;BME280_humidity;BME280_pressure;Samples;Min_cycle;Max_cycle;Signal;HPM_P1;HPM_P2
2022/09/12 00:00:45;;;;;;;16.70;14.48;;;13.40;99.90;;;;;;5075247;28;20488;-61
2022/09/12 00:03:10;;;;;;;18.15;14.65;;;13.40;99.90;;;;;;5077237;28;20146;-61
2022/09/12 00:05:41;;;;;;;18.52;13.98;;;13.40;99.90;;;;;;5067468;28;20039;-62
2022/09/12 00:08:07;;;;;;;12.40;10.35;;;13.40;99.90;;;;;;5078794;28;20164;-62
2022/09/12 00:10:37;;;;;;;14.27;11.38;;;13.30;99.90;;;;;;5077667;28;20053;-61
2022/09/12 00:13:02;;;;;;;14.55;11.82;;;13.30;99.90;;;;;;5077234;28;20046;-61
2022/09/12 00:15:28;;;;;;;14.55;12.35;;;13.30;99.90;;;;;;5079084;28;20417;-61
2022/09/12 00:17:53;;;;;;;14.65;12.15;;;13.20;99.90;;;;;;5069275;28;20059;-61
2022/09/12 00:20:19;;;;;;;17.75;14.00;;;13.20;99.90;;;;;;5073880;28;20391;-60
2022/09/12 00:22:44;;;;;;;17.17;13.75;;;13.20;99.90;;;;;;5078952;28;20388;-61
2022/09/12 00:25:10;;;;;;;18.58;12.43;;;13.20;99.90;;;;;;5081957;28;20375;-61
2022/09/12 00:27:36;;;;;;;9.73;7.93;;;13.30;99.90;;;;;;5077670;28;20028;-60
2022/09/12 00:30:02;;;;;;;8.50;7.10;;;13.20;99.90;;;;;;5080897;28;20639;-61
2022/09/12 00:32:28;;;;;;;6.68;5.80;;;13.20;99.90;;;;;;5078632;28;20043;-61
2022/09/12 00:34:53;;;;;;;9.73;7.63;;;13.10;99.90;;;;;;5074032;28;20044;-61
2022/09/12 00:37:19;;;;;;;10.70;9.60;;;13.00;99.90;;;;;;5073543;28;20526;-61
2022/09/12 00:39:45;;;;;;;10.93;9.43;;;12.90;99.90;;;;;;5088132;28;20127;-61
2022/09/12 00:42:11;;;;;;;10.57;9.48;;;12.90;99.90;;;;;;5074629;28;20039;-60
2022/09/12 00:44:37;;;;;;;12.15;10.32;;;12.80;99.90;;;;;;5075364;28;20062;-61
2022/09/12 00:47:21;;;;;;;14.68;13.07;;;12.80;99.90;;;;;;5076949;28;20597;-61
2022/09/12 00:50:09;;;;;;;18.02;12.90;;;12.80;99.90;;;;;;5081017;28;20063;-61
2022/09/12 00:52:52;;;;;;;16.30;13.13;;;12.70;99.90;;;;;;5076739;28;20067;-61
2022/09/12 00:55:35;;;;;;;18.00;14.45;;;12.70;99.90;;;;;;5084450;28;20032;-61
2022/09/12 00:58:12;;;;;;;18.83;14.05;;;12.70;99.90;;;;;;5077912;28;20122;-61
2022/09/12 01:00:37;;;;;;;16.40;13.55;;;12.70;99.90;;;;;;5077766;28;20040;-61
2022/09/12 01:03:07;;;;;;;20.52;14.68;;;12.70;99.90;;;;;;5079844;28;20059;-60
2022/09/12 01:05:38;;;;;;;17.05;14.80;;;12.60;99.90;;;;;;5080015;28;20498;-60
2022/09/12 01:08:05;;;;;;;17.98;14.98;;;12.60;99.90;;;;;;5070927;28;20036;-61
2022/09/12 01:10:34;;;;;;;21.52;16.80;;;12.60;99.90;;;;;;5079730;28;20024;-61
2022/09/12 01:13:00;;;;;;;19.55;16.02;;;12.60;99.90;;;;;;5077048;28;20048;-61
2022/09/12 01:15:26;;;;;;;16.88;13.30;;;12.60;99.90;;;;;;5079782;28;20063;-61
2022/09/12 01:18:29;;;;;;;14.40;12.80;;;12.60;99.90;;;;;;5083828;28;20036;-61
2022/09/12 01:21:31;;;;;;;17.98;14.18;;;12.50;99.90;;;;;;5076193;28;20036;-61
2022/09/12 01:24:36;;;;;;;20.90;16.13;;;12.50;99.90;;;;;;5077767;28;20047;-61
2022/09/12 01:27:25;;;;;;;22.88;17.48;;;12.50;99.90;;;;;;5079957;28;20035;-61
2022/09/12 01:30:15;;;;;;;26.90;20.27;;;12.50;99.90;;;;;;5081686;28;20044;-61
2022/09/12 01:32:59;;;;;;;25.67;19.90;;;12.50;99.90;;;;;;5078651;28;20040;-61
2022/09/12 01:35:44;;;;;;;26.02;20.27;;;12.50;99.90;;;;;;5075923;28;22751;-62
2022/09/12 01:38:22;;;;;;;34.58;22.60;;;12.60;99.90;;;;;;5081916;28;20977;-62
2022/09/12 01:41:12;;;;;;;27.23;21.70;;;12.60;99.90;;;;;;5079926;28;20479;-62
2022/09/12 01:44:21;;;;;;;27.95;19.95;;;12.70;99.90;;;;;;5082996;28;20067;-62
2022/09/12 01:47:01;;;;;;;25.73;18.42;;;12.60;99.90;;;;;;5078991;28;21111;-61
2022/09/12 01:49:45;;;;;;;23.97;18.07;;;12.60;99.90;;;;;;5082676;28;20447;-61
2022/09/12 01:52:38;;;;;;;23.13;16.85;;;12.50;99.90;;;;;;5079826;28;20050;-61
2022/09/12 01:55:23;;;;;;;25.27;17.88;;;12.50;99.90;;;;;;5084153;28;20059;-61
2022/09/12 01:58:01;;;;;;;23.50;17.92;;;12.50;99.90;;;;;;5088321;28;20051;-61
2022/09/12 02:00:27;;;;;;;28.05;17.55;;;12.50;99.90;;;;;;5085360;28;20036;-61
2022/09/12 02:03:01;;;;;;;17.88;15.68;;;12.50;99.90;;;;;;5082162;28;20537;-61
2022/09/12 02:05:33;;;;;;;20.98;16.38;;;12.40;99.90;;;;;;5071342;28;21129;-61
2022/09/12 02:08:10;;;;;;;23.42;17.55;;;12.40;99.90;;;;;;5076497;28;20542;-62
2022/09/12 02:10:59;;;;;;;26.80;19.38;;;12.40;99.90;;;;;;5080226;28;20064;-61
2022/09/12 02:13:48;;;;;;;31.92;21.90;;;12.40;99.90;;;;;;5080590;28;20180;-62
2022/09/12 02:16:20;;;;;;;29.92;20.55;;;12.40;99.90;;;;;;5076314;28;20142;-62
2022/09/12 02:18:52;;;;;;;39.65;24.80;;;12.40;99.90;;;;;;5081065;28;20112;-62
2022/09/12 02:21:20;;;;;;;35.28;23.80;;;12.50;99.90;;;;;;5076428;28;20048;-61
2022/09/12 02:23:51;;;;;;;36.95;24.02;;;12.60;99.90;;;;;;5078258;28;20379;-62
2022/09/12 02:26:22;;;;;;;37.10;23.92;;;12.70;99.90;;;;;;5077769;28;20038;-62
2022/09/12 02:28:48;;;;;;;37.78;24.63;;;12.60;99.90;;;;;;5084088;28;20156;-62
2022/09/12 02:31:25;;;;;;;31.42;21.80;;;12.60;99.90;;;;;;5084382;28;20125;-61
2022/09/12 02:34:01;;;;;;;36.20;23.90;;;12.60;99.90;;;;;;5084259;28;20475;-62
2022/09/12 02:37:04;;;;;;;35.10;22.02;;;12.50;99.90;;;;;;5081249;28;20131;-62
2022/09/12 02:39:30;;;;;;;35.55;21.58;;;12.50;99.90;;;;;;5085979;28;20054;-61
2022/09/12 02:41:59;;;;;;;28.75;19.95;;;12.40;99.90;;;;;;5078546;28;20115;-61
2022/09/12 02:44:27;;;;;;;29.90;20.08;;;12.40;99.90;;;;;;5092120;28;20379;-63
2022/09/12 02:47:05;;;;;;;29.17;19.40;;;12.40;99.90;;;;;;5081997;28;20238;-61
2022/09/12 02:49:31;;;;;;;38.30;21.70;;;12.40;99.90;;;;;;5081306;28;20028;-61
2022/09/12 02:51:58;;;;;;;30.42;20.00;;;12.40;99.90;;;;;;5081311;28;20453;-61
2022/09/12 02:54:24;;;;;;;31.75;21.10;;;12.40;99.90;;;;;;5087218;28;20059;-61
2022/09/12 02:56:50;;;;;;;22.63;17.10;;;12.30;99.90;;;;;;5074540;28;20479;-62
2022/09/12 02:59:20;;;;;;;16.65;13.73;;;12.30;99.90;;;;;;5082582;28;20043;-61
2022/09/12 03:02:23;;;;;;;20.13;14.38;;;12.20;99.90;;;;;;5080987;28;20491;-61
2022/09/12 03:05:15;;;;;;;16.33;12.52;;;12.10;99.90;;;;;;5062541;28;20171;-61
2022/09/12 03:08:20;;;;;;;18.05;13.20;;;12.00;99.90;;;;;;5060053;28;20043;-61
2022/09/12 03:11:13;;;;;;;19.38;13.80;;;12.00;99.90;;;;;;5059849;28;20057;-61
2022/09/12 03:14:05;;;;;;;16.85;12.88;;;11.90;99.90;;;;;;5081780;28;20051;-61
2022/09/12 03:16:57;;;;;;;25.55;16.10;;;11.90;99.90;;;;;;5078779;28;20077;-61
2022/09/12 03:19:50;;;;;;;23.48;15.45;;;11.80;99.90;;;;;;5082780;28;20094;-61
2022/09/12 03:22:21;;;;;;;15.20;11.68;;;11.80;99.90;;;;;;5079673;28;20032;-62
2022/09/12 03:25:13;;;;;;;16.23;12.05;;;11.70;99.90;;;;;;5074219;28;20033;-62
2022/09/12 03:27:50;;;;;;;12.88;11.02;;;11.70;99.90;;;;;;5079582;28;20414;-62
2022/09/12 03:30:15;;;;;;;12.15;10.88;;;11.80;99.90;;;;;;5079215;28;20046;-62
2022/09/12 03:32:50;;;;;;;12.52;10.55;;;11.70;99.90;;;;;;5085135;28;20040;-62
2022/09/12 03:35:19;;;;;;;10.73;9.65;;;11.70;99.90;;;;;;5085003;28;20041;-61
2022/09/12 03:37:46;;;;;;;9.90;8.68;;;11.70;99.90;;;;;;5079870;28;20040;-62
2022/09/12 03:40:11;;;;;;;13.75;10.63;;;11.60;99.90;;;;;;5083304;28;20046;-61
2022/09/12 03:42:38;;;;;;;14.68;11.25;;;11.50;99.90;;;;;;5087911;28;20147;-61
2022/09/12 03:45:05;;;;;;;15.45;11.95;;;11.40;99.90;;;;;;5086401;28;20098;-62
2022/09/12 03:47:30;;;;;;;16.70;11.57;;;11.40;99.90;;;;;;5076978;28;20036;-61
2022/09/12 03:49:56;;;;;;;17.52;11.43;;;11.40;99.90;;;;;;5086460;28;20051;-62
2022/09/12 03:52:22;;;;;;;12.77;10.13;;;11.30;99.90;;;;;;5081562;28;20451;-61
2022/09/12 03:54:47;;;;;;;12.88;10.38;;;11.30;99.90;;;;;;5079177;28;20036;-62
2022/09/12 03:57:13;;;;;;;17.08;11.65;;;11.20;99.90;;;;;;5081359;28;20040;-61
2022/09/12 03:59:39;;;;;;;15.57;11.52;;;11.20;99.90;;;;;;5081224;28;20058;-62
2022/09/12 04:02:04;;;;;;;19.63;12.77;;;11.20;99.90;;;;;;5080587;28;20074;-62
2022/09/12 04:04:31;;;;;;;19.95;13.32;;;11.20;99.90;;;;;;5075630;28;20459;-62
2022/09/12 04:06:56;;;;;;;19.73;12.70;;;11.20;99.90;;;;;;5069180;28;20052;-62
2022/09/12 04:09:22;;;;;;;18.33;12.77;;;11.10;99.90;;;;;;5079206;28;20054;-61
2022/09/12 04:11:47;;;;;;;25.38;17.60;;;11.20;99.90;;;;;;5073712;28;20048;-62
2022/09/12 04:14:13;;;;;;;25.48;16.33;;;11.20;99.90;;;;;;5076280;28;20055;-62
2022/09/12 04:16:38;;;;;;;34.45;19.50;;;11.30;99.90;;;;;;5082332;28;20040;-61
2022/09/12 04:19:04;;;;;;;26.90;16.23;;;11.30;99.90;;;;;;5084082;28;20028;-62
2022/09/12 04:21:30;;;;;;;29.63;18.38;;;11.30;99.90;;;;;;5076736;28;20141;-61
2022/09/12 04:23:55;;;;;;;30.65;19.63;;;11.30;99.90;;;;;;5077027;28;20032;-61
2022/09/12 04:26:21;;;;;;;31.88;18.80;;;11.20;99.90;;;;;;5075280;28;20035;-62
2022/09/12 04:28:47;;;;;;;29.77;18.48;;;11.20;99.90;;;;;;5078556;28;20036;-61
2022/09/12 04:31:21;;;;;;;33.13;20.17;;;11.20;99.90;;;;;;5076666;28;20593;-61
2022/09/12 04:33:51;;;;;;;32.00;20.02;;;11.30;99.90;;;;;;5073081;28;20036;-61
2022/09/12 04:36:17;;;;;;;34.67;20.45;;;11.30;99.90;;;;;;5074191;28;20040;-62
2022/09/12 04:38:45;;;;;;;34.67;20.92;;;11.30;99.90;;;;;;5078919;28;20108;-62
2022/09/12 04:41:13;;;;;;;31.55;20.05;;;11.30;99.90;;;;;;5080022;28;20043;-62
2022/09/12 04:43:39;;;;;;;35.20;20.65;;;11.30;99.90;;;;;;5074179;28;20488;-61
2022/09/12 04:46:06;;;;;;;33.92;19.88;;;11.30;99.90;;;;;;5076871;28;20039;-61
2022/09/12 04:48:32;;;;;;;32.53;19.90;;;11.30;99.90;;;;;;5078547;28;20526;-62
2022/09/12 04:51:16;;;;;;;35.70;20.10;;;11.30;99.90;;;;;;5075995;28;20173;-63
2022/09/12 04:53:42;;;;;;;34.65;20.85;;;11.30;99.90;;;;;;5080287;28;20096;-61
2022/09/12 04:56:10;;;;;;;36.42;20.52;;;11.30;99.90;;;;;;5080208;28;20039;-61
2022/09/12 04:58:36;;;;;;;36.25;21.02;;;11.30;99.90;;;;;;5079704;28;20066;-62
2022/09/12 05:01:07;;;;;;;31.67;18.85;;;11.30;99.90;;;;;;5082882;28;20065;-61
2022/09/12 05:03:34;;;;;;;33.08;19.48;;;11.40;99.90;;;;;;5081201;28;20395;-61
2022/09/12 05:06:03;;;;;;;30.67;18.38;;;11.40;99.90;;;;;;5078331;28;20047;-61
2022/09/12 05:08:29;;;;;;;32.50;17.70;;;11.40;99.90;;;;;;5088223;28;20039;-61
2022/09/12 05:10:54;;;;;;;31.75;18.33;;;11.40;99.90;;;;;;5078476;28;20020;-62
2022/09/12 05:13:21;;;;;;;35.40;20.25;;;11.30;99.90;;;;;;5075174;28;20085;-62
2022/09/12 05:15:57;;;;;;;34.80;20.38;;;11.40;99.90;;;;;;5077382;28;20374;-61
2022/09/12 05:18:23;;;;;;;37.17;21.20;;;11.40;99.90;;;;;;5072835;28;20113;-61
2022/09/12 05:20:49;;;;;;;38.53;21.90;;;11.50;99.90;;;;;;5077482;28;20044;-61
2022/09/12 05:23:14;;;;;;;40.88;22.10;;;11.50;99.90;;;;;;5054211;28;20044;-62
2022/09/12 05:25:48;;;;;;;38.10;22.30;;;11.60;99.90;;;;;;5079925;28;20045;-61
2022/09/12 05:28:13;;;;;;;40.67;22.55;;;11.70;99.90;;;;;;5085872;28;20043;-61
2022/09/12 05:30:39;;;;;;;42.55;22.70;;;11.90;99.90;;;;;;5077421;28;20041;-61
2022/09/12 05:33:05;;;;;;;43.75;24.75;;;12.00;99.90;;;;;;5082925;28;20036;-61
2022/09/12 05:35:31;;;;;;;34.25;21.17;;;12.10;99.90;;;;;;5070851;28;20573;-62
2022/09/12 05:37:57;;;;;;;45.47;24.52;;;12.20;99.90;;;;;;5083082;28;20490;-61
2022/09/12 05:40:23;;;;;;;54.10;27.55;;;12.30;99.90;;;;;;5076831;28;20048;-62
2022/09/12 05:42:49;;;;;;;61.03;29.90;;;12.50;99.90;;;;;;5079349;28;20033;-62
2022/09/12 05:45:14;;;;;;;68.88;31.38;;;12.60;99.90;;;;;;5076124;28;20036;-63
2022/09/12 05:47:40;;;;;;;58.55;30.55;;;12.80;99.90;;;;;;5082730;28;20077;-61
2022/09/12 05:50:09;;;;;;;63.15;32.08;;;12.90;99.90;;;;;;5078320;28;20036;-62
2022/09/12 05:52:35;;;;;;;64.55;30.55;;;12.90;99.90;;;;;;5075956;28;20093;-61
2022/09/12 05:55:01;;;;;;;60.88;30.40;;;13.10;99.90;;;;;;5075496;28;20032;-62
2022/09/12 05:57:28;;;;;;;56.00;30.40;;;13.10;99.90;;;;;;5077580;28;20036;-61
2022/09/12 05:59:53;;;;;;;53.75;26.42;;;13.20;99.90;;;;;;5080741;28;20538;-62
2022/09/12 06:02:19;;;;;;;54.75;28.40;;;13.40;99.90;;;;;;5079553;28;20135;-61
2022/09/12 06:04:45;;;;;;;48.97;26.77;;;13.40;99.90;;;;;;5077424;28;20036;-62
2022/09/12 06:07:11;;;;;;;48.97;26.75;;;13.50;99.90;;;;;;5073625;28;20040;-62
2022/09/12 06:09:36;;;;;;;45.50;26.15;;;13.50;99.90;;;;;;5082765;28;20518;-61
2022/09/12 06:12:03;;;;;;;55.17;27.65;;;13.60;99.90;;;;;;5076952;28;20032;-61
2022/09/12 06:14:28;;;;;;;52.95;27.88;;;13.60;99.90;;;;;;5079800;28;20041;-61
2022/09/12 06:16:54;;;;;;;54.25;27.90;;;13.60;99.90;;;;;;5091825;28;20043;-61
2022/09/12 06:19:22;;;;;;;51.03;26.58;;;13.70;99.90;;;;;;5073394;28;20093;-61
2022/09/12 06:21:48;;;;;;;50.38;27.15;;;13.70;99.90;;;;;;5076021;28;20044;-61
2022/09/12 06:24:15;;;;;;;50.95;27.35;;;13.70;99.90;;;;;;5088650;28;20044;-61
2022/09/12 06:26:41;;;;;;;54.67;27.50;;;13.70;99.90;;;;;;5090039;28;20028;-62
2022/09/12 06:29:07;;;;;;;50.17;28.08;;;13.80;99.90;;;;;;5088217;28;20157;-62
2022/09/12 06:31:35;;;;;;;52.33;28.02;;;13.80;99.90;;;;;;5083034;28;20032;-61
2022/09/12 06:34:03;;;;;;;47.80;26.48;;;13.80;99.90;;;;;;5086537;28;20036;-61
2022/09/12 06:36:31;;;;;;;48.45;26.40;;;13.80;99.90;;;;;;5084120;28;20046;-61
2022/09/12 06:39:10;;;;;;;50.97;27.33;;;13.90;99.90;;;;;;5087156;28;20173;-62
2022/09/12 06:41:36;;;;;;;48.17;27.48;;;13.90;99.90;;;;;;5084522;28;20131;-61
2022/09/12 06:44:02;;;;;;;50.45;27.88;;;14.00;99.90;;;;;;5092239;28;20462;-62
2022/09/12 06:46:29;;;;;;;48.15;27.17;;;14.00;99.90;;;;;;5083464;28;20058;-61
2022/09/12 06:48:56;;;;;;;47.83;26.27;;;14.00;99.90;;;;;;5088166;28;20051;-62
2022/09/12 06:51:22;;;;;;;54.65;29.13;;;14.10;99.90;;;;;;5085041;28;20036;-62
2022/09/12 06:53:49;;;;;;;51.17;27.33;;;14.10;99.90;;;;;;5086889;28;20088;-62
2022/09/12 06:56:16;;;;;;;55.47;27.73;;;14.20;99.90;;;;;;5086131;28;20059;-62
2022/09/12 06:58:42;;;;;;;52.10;27.67;;;14.20;99.90;;;;;;5090100;28;20492;-61
2022/09/12 07:01:14;;;;;;;55.15;27.90;;;14.30;99.90;;;;;;5083998;28;20036;-62
2022/09/12 07:03:40;;;;;;;52.75;29.13;;;14.30;99.90;;;;;;5085266;28;20057;-62
2022/09/12 07:06:07;;;;;;;51.17;28.10;;;14.40;99.90;;;;;;5081228;28;20136;-62
2022/09/12 07:08:36;;;;;;;52.47;28.25;;;14.50;99.90;;;;;;5090101;28;20043;-61
2022/09/12 07:11:10;;;;;;;52.95;29.23;;;14.60;99.90;;;;;;5084096;28;20032;-62
2022/09/12 07:13:36;;;;;;;48.70;27.38;;;14.60;99.90;;;;;;5083527;28;20159;-62
2022/09/12 07:16:04;;;;;;;48.13;28.20;;;14.70;99.90;;;;;;5089125;28;20472;-61
2022/09/12 07:18:30;;;;;;;46.40;27.10;;;14.80;99.90;;;;;;5088458;28;20044;-62
2022/09/12 07:20:58;;;;;;;54.40;28.40;;;14.80;99.90;;;;;;5076618;28;20044;-61
2022/09/12 07:23:23;;;;;;;54.42;29.63;;;14.90;99.90;;;;;;5088330;28;20048;-61
2022/09/12 07:25:56;;;;;;;57.17;29.60;;;15.00;99.90;;;;;;5084607;28;20047;-62
2022/09/12 07:28:23;;;;;;;55.58;28.70;;;15.00;99.90;;;;;;5087470;28;20035;-61
2022/09/12 07:30:49;;;;;;;57.67;30.48;;;15.10;99.90;;;;;;5083178;28;20044;-62
2022/09/12 07:33:14;;;;;;;54.80;29.55;;;15.10;99.90;;;;;;5092522;28;20158;-62
2022/09/12 07:35:40;;;;;;;50.60;29.38;;;15.20;99.90;;;;;;5091243;28;20055;-61
2022/09/12 07:38:06;;;;;;;53.42;28.75;;;15.20;99.90;;;;;;5085850;28;20066;-61
2022/09/12 07:40:31;;;;;;;55.25;29.42;;;15.30;99.90;;;;;;5080025;28;20117;-62
2022/09/12 07:42:57;;;;;;;54.80;30.35;;;15.30;99.90;;;;;;5085177;28;20047;-62
2022/09/12 07:45:22;;;;;;;63.72;32.75;;;15.40;99.90;;;;;;5091456;28;20043;-61
2022/09/12 07:47:51;;;;;;;54.90;30.55;;;15.50;99.90;;;;;;5091323;28;20044;-62
2022/09/12 07:50:17;;;;;;;53.55;29.77;;;15.60;99.90;;;;;;5086015;28;20044;-62
2022/09/12 07:52:42;;;;;;;54.15;29.95;;;15.70;99.90;;;;;;5090679;28;20043;-62
2022/09/12 07:55:08;;;;;;;56.83;31.45;;;15.80;99.90;;;;;;5089592;28;20066;-62
2022/09/12 07:57:34;;;;;;;54.00;29.73;;;16.00;99.90;;;;;;5083857;28;20087;-62
2022/09/12 07:59:59;;;;;;;57.45;30.42;;;16.10;99.90;;;;;;5088261;28;20044;-62
2022/09/12 08:02:25;;;;;;;54.60;29.35;;;16.30;99.90;;;;;;5085064;28;20056;-62
2022/09/12 08:04:51;;;;;;;52.42;28.58;;;16.50;99.90;;;;;;5088057;28;20433;-63
2022/09/12 08:07:18;;;;;;;41.47;22.83;;;16.70;99.90;;;;;;5084199;28;20128;-63
2022/09/12 08:09:43;;;;;;;44.85;24.83;;;16.90;99.90;;;;;;5082607;28;20602;-62
2022/09/12 08:12:09;;;;;;;41.55;24.30;;;17.00;99.90;;;;;;5080939;28;20131;-63
2022/09/12 08:14:34;;;;;;;37.33;21.50;;;17.00;99.90;;;;;;5091139;28;20069;-63
2022/09/12 08:17:00;;;;;;;32.63;19.15;;;17.00;99.90;;;;;;5089651;28;20505;-62
2022/09/12 08:19:25;;;;;;;33.22;19.25;;;17.00;99.90;;;;;;5069432;28;20036;-62
2022/09/12 08:21:51;;;;;;;32.28;18.92;;;16.90;99.90;;;;;;5083676;28;20032;-62
2022/09/12 08:24:16;;;;;;;35.00;20.60;;;16.80;99.90;;;;;;5090833;28;20111;-62
2022/09/12 08:26:42;;;;;;;33.55;19.80;;;16.90;99.90;;;;;;5088981;28;20086;-62
2022/09/12 08:29:08;;;;;;;33.22;19.52;;;16.90;99.90;;;;;;5080854;28;20620;-63
2022/09/12 08:31:36;;;;;;;33.08;20.05;;;17.10;99.90;;;;;;5082873;28;20035;-62
2022/09/12 08:34:05;;;;;;;33.55;18.55;;;17.20;99.90;;;;;;5074975;28;20040;-63
2022/09/12 08:36:31;;;;;;;30.90;18.37;;;17.40;99.90;;;;;;5080827;28;20036;-63
2022/09/12 08:39:03;;;;;;;28.77;16.35;;;17.50;99.90;;;;;;5080712;28;20120;-62
2022/09/12 08:41:30;;;;;;;26.77;15.82;;;17.70;99.90;;;;;;5095054;28;20564;-63
2022/09/12 08:44:27;;;;;;;25.55;14.73;;;17.80;99.90;;;;;;5089025;28;20051;-62
2022/09/12 08:47:26;;;;;;;22.40;13.30;;;17.90;99.90;;;;;;5083073;28;20036;-62
2022/09/12 08:50:06;;;;;;;21.77;13.55;;;17.90;99.90;;;;;;5077376;28;20604;-62
2022/09/12 08:52:53;;;;;;;20.45;12.52;;;17.90;99.90;;;;;;5082771;28;20067;-62
2022/09/12 08:55:41;;;;;;;20.20;13.00;;;17.90;99.90;;;;;;5088025;28;20057;-61
2022/09/12 08:58:22;;;;;;;19.42;12.73;;;17.90;99.90;;;;;;5081512;28;20620;-62
2022/09/12 09:01:20;;;;;;;21.20;12.80;;;17.90;99.90;;;;;;5086452;28;20059;-62
2022/09/12 09:04:07;;;;;;;21.80;13.25;;;18.00;99.90;;;;;;5074874;28;20048;-63
2022/09/12 09:06:39;;;;;;;20.58;13.50;;;18.00;99.90;;;;;;5085899;28;20044;-62
2022/09/12 09:09:10;;;;;;;23.00;13.80;;;18.10;99.90;;;;;;5087363;28;20044;-62
2022/09/12 09:11:58;;;;;;;21.25;13.38;;;18.10;99.90;;;;;;5076291;28;20028;-61
2022/09/12 09:14:48;;;;;;;20.67;12.82;;;18.20;99.90;;;;;;5086179;28;20040;-63
2022/09/12 09:17:39;;;;;;;19.60;12.80;;;18.30;99.90;;;;;;5087330;28;20051;-62
2022/09/12 09:20:21;;;;;;;25.20;15.45;;;18.40;99.90;;;;;;5075569;28;20323;-62
2022/09/12 09:22:54;;;;;;;20.63;13.70;;;18.50;99.90;;;;;;5087763;28;20066;-63
2022/09/12 09:25:32;;;;;;;26.63;15.18;;;18.70;99.90;;;;;;5089502;28;20036;-62
2022/09/12 09:28:04;;;;;;;23.52;15.77;;;18.90;99.90;;;;;;5081568;28;20071;-62
2022/09/12 09:30:32;;;;;;;28.95;17.17;;;19.10;99.90;;;;;;5085168;28;20055;-62
2022/09/12 09:33:00;;;;;;;29.13;16.77;;;19.20;99.90;;;;;;5072185;28;20032;-62
2022/09/12 09:35:42;;;;;;;28.38;16.67;;;19.10;99.90;;;;;;5082852;28;20121;-62
2022/09/12 09:38:45;;;;;;;28.70;16.25;;;19.20;99.90;;;;;;5085976;28;20048;-63
2022/09/12 09:41:42;;;;;;;30.58;18.13;;;19.40;99.90;;;;;;5072162;28;20044;-62
2022/09/12 09:44:08;;;;;;;29.48;18.67;;;19.50;99.90;;;;;;5101794;28;20055;-63
2022/09/12 09:46:34;;;;;;;36.70;18.65;;;19.50;99.90;;;;;;5089245;28;20032;-63
2022/09/12 09:49:02;;;;;;;34.15;19.55;;;19.60;99.90;;;;;;5093095;28;20435;-63
2022/09/12 09:51:37;;;;;;;31.50;18.67;;;19.60;99.90;;;;;;5085705;28;20040;-63
2022/09/12 09:54:17;;;;;;;33.20;19.08;;;19.70;99.90;;;;;;5087528;28;20051;-62
2022/09/12 09:56:43;;;;;;;;;;;19.90;99.90;;;;;;5082768;28;20153;-62
2022/09/12 09:59:24;;;;;;;33.40;19.42;;;20.00;99.90;;;;;;5093846;28;20291;-62
2022/09/12 10:01:58;;;;;;;35.00;20.20;;;20.00;99.90;;;;;;5088303;28;20141;-63
2022/09/12 10:04:28;;;;;;;40.13;23.05;;;20.20;99.90;;;;;;5082444;28;20040;-62
2022/09/12 10:06:57;;;;;;;40.80;23.15;;;20.20;99.90;;;;;;5079213;28;20413;-62
2022/09/12 10:09:28;;;;;;;37.85;21.48;;;20.30;99.90;;;;;;5095279;28;20044;-62
2022/09/12 10:11:55;;;;;;;43.33;23.17;;;20.10;99.90;;;;;;5089988;28;20040;-63
2022/09/12 10:14:33;;;;;;;44.30;24.13;;;20.30;99.90;;;;;;5091422;28;20041;-62
2022/09/12 10:17:00;;;;;;;40.88;23.05;;;20.40;99.90;;;;;;5092582;28;20059;-62
2022/09/12 10:19:35;;;;;;;40.00;22.63;;;20.40;99.90;;;;;;5092195;28;20044;-63
2022/09/12 10:22:03;;;;;;;43.00;23.58;;;20.70;99.90;;;;;;5083780;28;20063;-62
2022/09/12 10:24:36;;;;;;;37.78;22.30;;;20.90;99.90;;;;;;5077711;28;20341;-63
2022/09/12 10:27:11;;;;;;;39.90;22.00;;;21.00;99.90;;;;;;5092093;28;20043;-63
2022/09/12 10:29:59;;;;;;;38.35;21.42;;;21.20;99.90;;;;;;5091468;28;20489;-63
2022/09/12 10:32:37;;;;;;;38.83;20.13;;;21.00;99.90;;;;;;5077451;28;20040;-63
2022/09/12 10:35:29;;;;;;;35.72;20.08;;;20.90;99.90;;;;;;5088574;28;20036;-63
2022/09/12 10:37:59;;;;;;;35.78;20.60;;;20.90;99.90;;;;;;5081149;28;20035;-63
2022/09/12 10:40:36;;;;;;;35.35;20.75;;;20.70;99.90;;;;;;5091352;28;20036;-62
2022/09/12 10:43:16;;;;;;;32.03;19.33;;;20.70;99.90;;;;;;5084184;28;20056;-62
2022/09/12 10:45:41;;;;;;;28.33;17.42;;;20.60;99.50;;;;;;5089085;28;20035;-63
2022/09/12 10:48:30;;;;;;;29.48;17.17;;;20.70;99.90;;;;;;5084863;28;20542;-63
2022/09/12 10:50:57;;;;;;;29.67;17.73;;;20.80;99.90;;;;;;5085600;28;20379;-63
2022/09/12 10:53:27;;;;;;;27.27;16.17;;;20.90;99.90;;;;;;5089029;28;20040;-62
2022/09/12 10:56:01;;;;;;;;;;;21.00;99.90;;;;;;5086598;28;20050;-63
2022/09/12 10:58:49;;;;;;;26.70;14.57;;;21.00;99.90;;;;;;5073687;28;19916;-63
2022/09/12 11:01:31;;;;;;;23.27;14.00;;;21.10;99.90;;;;;;5084075;28;20037;-63
2022/09/12 11:04:27;;;;;;;28.10;15.80;;;21.20;99.20;;;;;;5087909;28;20509;-63
2022/09/12 11:07:30;;;;;;;29.17;15.57;;;21.20;99.20;;;;;;5079345;28;20403;-63
2022/09/12 11:10:25;;;;;;;24.50;14.23;;;21.30;99.90;;;;;;5088719;28;20493;-62
2022/09/12 11:13:19;;;;;;;26.17;13.45;;;21.40;98.80;;;;;;5087435;28;20658;-63
2022/09/12 11:16:04;;;;;;;27.77;17.95;;;21.50;99.40;;;;;;5090385;28;20048;-64
2022/09/12 11:18:54;;;;;;;27.70;16.77;;;21.60;98.10;;;;;;5090097;28;20044;-63
2022/09/12 11:21:45;;;;;;;25.88;15.45;;;21.60;98.30;;;;;;5086949;28;20039;-63
2022/09/12 11:24:19;;;;;;;30.42;13.27;;;21.60;98.30;;;;;;5089145;28;20062;-63
2022/09/12 11:27:06;;;;;;;22.92;15.57;;;21.70;97.90;;;;;;5085735;28;20135;-63
2022/09/12 11:29:57;;;;;;;24.08;15.98;;;21.80;98.40;;;;;;5073471;28;20078;-63
2022/09/12 11:32:40;;;;;;;26.83;14.57;;;21.80;96.80;;;;;;5077719;28;20086;-63
2022/09/12 11:35:23;;;;;;;25.90;15.10;;;21.90;96.80;;;;;;5076235;28;20856;-63
2022/09/12 11:38:07;;;;;;;23.30;14.85;;;22.10;96.00;;;;;;5088484;28;20032;-63
2022/09/12 11:40:43;;;;;;;21.58;13.10;;;22.20;96.90;;;;;;5089083;28;20036;-62
2022/09/12 11:43:40;;;;;;;21.35;12.77;;;22.20;96.10;;;;;;5089363;28;20039;-63
2022/09/12 11:46:18;;;;;;;22.42;13.30;;;22.20;95.90;;;;;;5080390;28;20107;-63
2022/09/12 11:49:11;;;;;;;18.02;11.10;;;22.10;95.40;;;;;;5086752;28;20043;-62
2022/09/12 11:51:52;;;;;;;14.32;9.85;;;22.30;94.90;;;;;;5084921;28;20115;-63
2022/09/12 11:54:35;;;;;;;18.35;12.02;;;22.40;94.50;;;;;;5086987;28;20528;-63
2022/09/12 11:57:27;;;;;;;22.48;13.45;;;22.40;93.10;;;;;;5084176;28;20089;-62
2022/09/12 12:00:01;;;;;;;20.70;12.30;;;22.20;92.90;;;;;;5090248;28;20043;-63
2022/09/12 12:02:29;;;;;;;16.67;10.18;;;22.30;93.60;;;;;;5087384;28;20087;-63
2022/09/12 12:05:33;;;;;;;22.20;14.15;;;22.50;95.10;;;;;;5082591;28;20222;-63
2022/09/12 12:08:02;;;;;;;20.58;12.13;;;22.50;93.30;;;;;;5084043;28;20379;-62
2022/09/12 12:10:42;;;;;;;15.23;10.70;;;22.80;93.20;;;;;;5072647;28;20472;-62
2022/09/12 12:13:34;;;;;;;19.38;11.93;;;22.90;94.10;;;;;;5081818;28;20092;-63
2022/09/12 12:16:20;;;;;;;15.95;9.68;;;22.90;91.40;;;;;;5080133;28;20040;-62
2022/09/12 12:18:54;;;;;;;16.10;10.65;;;23.10;93.00;;;;;;5082290;28;20055;-63
2022/09/12 12:21:42;;;;;;;16.13;9.68;;;23.30;92.50;;;;;;5086177;28;20036;-64
2022/09/12 12:24:08;;;;;;;15.23;10.25;;;23.30;90.70;;;;;;5089422;28;20093;-63
2022/09/12 12:26:39;;;;;;;18.73;11.63;;;23.30;91.60;;;;;;5087330;28;20041;-63
2022/09/12 12:29:18;;;;;;;17.55;10.95;;;23.30;91.20;;;;;;5090239;28;20047;-63
2022/09/12 12:31:58;;;;;;;19.75;11.00;;;23.30;90.00;;;;;;5090183;28;20050;-62
2022/09/12 12:34:29;;;;;;;;;;;23.40;90.10;;;;;;5088522;28;20051;-63
2022/09/12 12:36:54;;;;;;;15.27;9.40;;;23.40;86.00;;;;;;5088154;28;19916;-63
2022/09/12 12:39:32;;;;;;;17.98;10.32;;;23.50;88.60;;;;;;5090344;28;20093;-62
2022/09/12 12:42:01;;;;;;;16.35;10.60;;;23.60;85.10;;;;;;5075431;28;20352;-63
2022/09/12 12:44:46;;;;;;;16.10;11.48;;;23.70;86.70;;;;;;5086407;28;20048;-64
2022/09/12 12:47:39;;;;;;;19.63;11.40;;;23.90;83.70;;;;;;5081890;28;20502;-63
2022/09/12 12:50:20;;;;;;;14.25;10.15;;;24.20;86.40;;;;;;5083722;28;20103;-64
2022/09/12 12:52:53;;;;;;;16.48;10.80;;;24.60;84.90;;;;;;5080398;28;20046;-63
2022/09/12 12:55:26;;;;;;;17.17;11.82;;;26.00;81.50;;;;;;5083139;28;20060;-63
2022/09/12 12:57:54;;;;;;;18.13;11.00;;;26.00;71.40;;;;;;5075684;28;20402;-63
2022/09/12 13:00:19;;;;;;;17.88;9.88;;;25.90;75.60;;;;;;5085564;28;20035;-63